Time;durP1;ratioP1;P1;durP2;ratioP2;P2;SDS_P1;SDS_P2;PMS_P1;PMS_P2;Temp;Humidity;BMP_temperature;BMP_pressure;BME280_temperature;BME280_humidity;BME280_pressure;Samples;Min_cycle;Max_cycle;Signal;HPM_P1;HPM_P2
2023/01/22 00:02:12;;;;;;;0.68;0.68;;;0.40;99.90;;;;;;5067805;28;20200;-83
2023/01/22 00:04:39;;;;;;;0.50;0.40;;;0.30;99.90;;;;;;5067640;28;20237;-81
2023/01/22 00:07:05;;;;;;;0.50;0.40;;;0.40;99.90;;;;;;5067201;28;20306;-83
2023/01/22 00:09:34;;;;;;;0.50;0.50;;;0.40;99.90;;;;;;5066962;28;20313;-80
2023/01/22 00:12:00;;;;;;;2.25;2.15;;;0.50;99.90;;;;;;5067488;28;20229;-82
2023/01/22 00:14:27;;;;;;;2.08;1.98;;;0.50;99.90;;;;;;5069543;28;20233;-81
2023/01/22 00:16:54;;;;;;;1.10;1.05;;;0.50;99.90;;;;;;5070178;28;20292;-82
2023/01/22 00:19:21;;;;;;;2.80;1.10;;;0.50;99.90;;;;;;5067664;28;20242;-82
2023/01/22 00:21:48;;;;;;;1.35;1.35;;;0.50;99.90;;;;;;5066246;28;20194;-83
2023/01/22 00:24:14;;;;;;;4.53;2.78;;;0.50;99.90;;;;;;5067610;28;20238;-83
2023/01/22 00:26:43;;;;;;;0.50;0.40;;;0.50;99.90;;;;;;5066772;28;20203;-82
2023/01/22 00:29:10;;;;;;;0.50;0.40;;;0.60;99.90;;;;;;5066904;28;20272;-82
2023/01/22 00:31:37;;;;;;;1.88;1.15;;;0.60;99.90;;;;;;5066565;28;20286;-82
2023/01/22 00:34:04;;;;;;;3.70;2.30;;;0.50;99.90;;;;;;5066467;28;20190;-82
2023/01/22 00:36:31;;;;;;;0.98;0.98;;;0.40;99.90;;;;;;5066405;28;20202;-82
2023/01/22 00:38:58;;;;;;;0.50;0.50;;;0.40;99.90;;;;;;5066292;28;20305;-83
2023/01/22 00:41:24;;;;;;;2.15;1.88;;;0.30;99.90;;;;;;5066367;28;20288;-82
2023/01/22 00:43:53;;;;;;;1.20;1.20;;;0.30;99.90;;;;;;5067133;28;20205;-82
2023/01/22 00:46:19;;;;;;;2.13;0.93;;;0.40;99.90;;;;;;5066656;28;20237;-81
2023/01/22 00:48:48;;;;;;;0.50;0.50;;;0.40;99.90;;;;;;5066310;28;20320;-83
2023/01/22 00:51:15;;;;;;;4.63;1.13;;;0.50;99.90;;;;;;5066488;28;20218;-84
2023/01/22 00:53:42;;;;;;;0.50;0.40;;;0.50;99.90;;;;;;5065999;28;20195;-83
2023/01/22 00:56:10;;;;;;;1.25;1.15;;;0.50;99.90;;;;;;5064893;28;20257;-81
2023/01/22 00:58:37;;;;;;;0.60;0.60;;;0.50;99.90;;;;;;5062171;28;20237;-80
2023/01/22 01:01:06;;;;;;;0.50;0.40;;;0.50;99.90;;;;;;5061705;28;20195;-80
2023/01/22 01:03:35;;;;;;;0.50;0.50;;;0.50;99.90;;;;;;5058825;28;20260;-81
2023/01/22 01:06:04;;;;;;;0.50;0.50;;;0.50;99.90;;;;;;5060568;28;20556;-81
2023/01/22 01:08:32;;;;;;;2.65;2.55;;;0.60;99.90;;;;;;5059768;28;20215;-80
2023/01/22 01:11:00;;;;;;;0.50;0.40;;;0.60;99.90;;;;;;5060429;28;20634;-81
2023/01/22 01:13:28;;;;;;;0.52;0.52;;;0.70;99.90;;;;;;5059870;28;20286;-81
2023/01/22 01:16:02;;;;;;;2.78;2.45;;;0.70;99.90;;;;;;5060139;28;20200;-80
2023/01/22 01:18:32;;;;;;;2.97;1.25;;;0.80;99.90;;;;;;5059140;28;20772;-82
2023/01/22 01:20:59;;;;;;;0.50;0.40;;;0.80;99.90;;;;;;5059886;28;20262;-82
2023/01/22 01:23:28;;;;;;;2.00;1.90;;;0.80;99.90;;;;;;5059344;28;20277;-81
2023/01/22 01:25:55;;;;;;;0.50;0.40;;;0.90;99.90;;;;;;5059961;28;20205;-82
2023/01/22 01:28:23;;;;;;;1.52;1.45;;;0.80;99.90;;;;;;5058980;28;20222;-82
2023/01/22 01:30:50;;;;;;;0.50;0.40;;;0.70;99.90;;;;;;5059681;28;20204;-81
2023/01/22 01:33:17;;;;;;;0.50;0.40;;;0.70;99.90;;;;;;5059061;28;20198;-80
2023/01/22 01:35:45;;;;;;;1.25;1.25;;;0.60;99.90;;;;;;5059695;28;20234;-81
2023/01/22 01:38:12;;;;;;;0.85;0.85;;;0.60;99.90;;;;;;5058835;28;20246;-81
2023/01/22 01:40:42;;;;;;;3.88;3.10;;;0.60;99.90;;;;;;5059420;28;20637;-82
2023/01/22 01:43:15;;;;;;;5.40;1.35;;;0.60;99.90;;;;;;5059153;28;20616;-81
2023/01/22 01:45:42;;;;;;;0.50;0.40;;;0.60;99.90;;;;;;5059108;28;20637;-80
2023/01/22 01:48:23;;;;;;;4.13;0.98;;;0.60;99.90;;;;;;5058974;28;20229;-80
2023/01/22 01:50:57;;;;;;;1.02;1.02;;;0.70;99.90;;;;;;5058420;28;20179;-82
2023/01/22 01:53:25;;;;;;;1.83;1.73;;;0.70;99.90;;;;;;5059166;28;20294;-81
2023/01/22 01:55:53;;;;;;;0.70;0.70;;;0.70;99.90;;;;;;5059420;28;20257;-82
2023/01/22 01:58:21;;;;;;;0.50;0.40;;;0.70;99.90;;;;;;5059233;28;20218;-81
2023/01/22 02:00:50;;;;;;;1.77;1.70;;;0.70;99.90;;;;;;5059215;28;20203;-81
2023/01/22 02:03:18;;;;;;;0.50;0.40;;;0.70;99.90;;;;;;5058063;28;20205;-80
2023/01/22 02:05:44;;;;;;;1.30;1.20;;;0.70;99.90;;;;;;5057542;28;20715;-80
2023/01/22 02:08:14;;;;;;;0.50;0.40;;;0.70;99.90;;;;;;5056862;28;20352;-82
2023/01/22 02:10:41;;;;;;;0.60;0.60;;;0.70;99.90;;;;;;5057883;28;20625;-82
2023/01/22 02:13:12;;;;;;;0.50;0.40;;;0.70;99.90;;;;;;5058284;28;20202;-81
2023/01/22 02:15:39;;;;;;;1.58;1.25;;;0.70;99.90;;;;;;5058784;28;20237;-81
2023/01/22 02:18:07;;;;;;;3.35;2.20;;;0.70;99.90;;;;;;5059037;28;20253;-82
2023/01/22 02:20:36;;;;;;;0.50;0.40;;;0.80;99.90;;;;;;5059218;28;20190;-81
2023/01/22 02:23:03;;;;;;;1.98;1.88;;;0.80;99.90;;;;;;5059249;28;20267;-82
2023/01/22 02:25:30;;;;;;;4.63;1.80;;;0.80;99.90;;;;;;5059294;28;20218;-82
2023/01/22 02:27:57;;;;;;;0.98;0.98;;;0.80;99.90;;;;;;5059572;28;20683;-81
2023/01/22 02:30:24;;;;;;;1.55;1.45;;;0.80;99.90;;;;;;5059428;28;20271;-82
2023/01/22 02:32:51;;;;;;;2.47;2.38;;;0.90;99.90;;;;;;5060014;28;20281;-82
2023/01/22 02:35:18;;;;;;;1.38;1.27;;;0.90;99.90;;;;;;5058736;28;20289;-82
2023/01/22 02:37:46;;;;;;;0.50;0.50;;;0.90;99.90;;;;;;5059630;28;20465;-82
2023/01/22 02:40:14;;;;;;;1.48;1.40;;;0.90;99.90;;;;;;5059646;28;20247;-83
2023/01/22 02:42:40;;;;;;;1.98;1.88;;;1.00;99.90;;;;;;5060438;28;20281;-81
2023/01/22 02:45:08;;;;;;;0.93;0.93;;;1.00;99.90;;;;;;5058681;28;20190;-82
2023/01/22 02:47:35;;;;;;;1.40;1.40;;;1.00;99.90;;;;;;5059645;28;20680;-82
2023/01/22 02:50:02;;;;;;;5.47;2.50;;;1.00;99.90;;;;;;5059816;28;20294;-82
2023/01/22 02:52:29;;;;;;;1.02;1.02;;;0.90;99.90;;;;;;5059350;28;20201;-82
2023/01/22 02:54:57;;;;;;;0.50;0.40;;;0.90;99.90;;;;;;5071446;28;20267;-83
2023/01/22 02:57:25;;;;;;;0.50;0.50;;;0.90;99.90;;;;;;5060882;28;20282;-81
2023/01/22 02:59:51;;;;;;;2.45;1.35;;;0.90;99.90;;;;;;5060401;28;20219;-83
2023/01/22 03:02:18;;;;;;;0.50;0.40;;;0.90;99.90;;;;;;5060757;28;20277;-83
2023/01/22 03:04:48;;;;;;;4.65;3.00;;;0.90;99.90;;;;;;5060101;28;20263;-81
2023/01/22 03:07:15;;;;;;;0.50;0.40;;;0.80;99.90;;;;;;5061069;28;20701;-80
2023/01/22 03:09:43;;;;;;;1.05;1.05;;;0.80;99.90;;;;;;5060532;28;20222;-83
2023/01/22 03:12:11;;;;;;;1.40;1.40;;;0.80;99.90;;;;;;5059935;28;20203;-83
2023/01/22 03:22:52;;;;;;;0.73;0.73;;;0.80;99.90;;;;;;5060050;28;20174;-82
2023/01/22 03:25:19;;;;;;;2.35;1.65;;;0.80;99.90;;;;;;5059218;28;20198;-82
2023/01/22 03:30:28;;;;;;;0.50;0.50;;;0.70;99.90;;;;;;5059475;28;20199;-82
2023/01/22 03:32:55;;;;;;;2.33;2.22;;;0.50;99.90;;;;;;5059947;28;20197;-82
2023/01/22 03:35:22;;;;;;;2.25;1.17;;;0.50;99.90;;;;;;5059921;28;20199;-82
2023/01/22 03:37:48;;;;;;;0.50;0.40;;;0.50;99.90;;;;;;5060582;28;20286;-82
2023/01/22 03:42:46;;;;;;;0.50;0.40;;;0.60;99.90;;;;;;5004317;28;20208;-79
2023/01/22 03:45:13;;;;;;;0.50;0.50;;;0.60;99.90;;;;;;5015751;28;20194;-78
2023/01/22 03:47:40;;;;;;;0.50;0.50;;;0.60;99.90;;;;;;5018146;28;20282;-79
2023/01/22 03:50:08;;;;;;;0.50;0.40;;;0.50;99.90;;;;;;5018235;28;20228;-80
2023/01/22 03:52:35;;;;;;;0.50;0.50;;;0.50;99.90;;;;;;5038811;28;20329;-79
2023/01/22 03:55:02;;;;;;;0.50;0.40;;;0.40;99.90;;;;;;5038040;28;20215;-80
2023/01/22 03:57:30;;;;;;;0.50;0.50;;;0.50;99.90;;;;;;5037987;28;20627;-79
2023/01/22 04:00:00;;;;;;;0.50;0.40;;;0.50;99.90;;;;;;5037836;28;20261;-79
2023/01/22 04:02:27;;;;;;;0.50;0.40;;;0.50;99.90;;;;;;5037486;28;20234;-79
2023/01/22 04:04:54;;;;;;;0.50;0.50;;;0.40;99.90;;;;;;5036502;28;20227;-79
2023/01/22 04:07:21;;;;;;;0.50;0.40;;;0.50;99.90;;;;;;5036396;28;20613;-80
2023/01/22 04:09:48;;;;;;;1.50;1.02;;;0.50;99.90;;;;;;5036654;28;20217;-78
2023/01/22 04:12:14;;;;;;;0.50;0.40;;;0.50;99.90;;;;;;5037044;28;20211;-79
2023/01/22 04:14:41;;;;;;;0.73;0.73;;;0.40;99.90;;;;;;5036106;28;20293;-79
2023/01/22 04:17:09;;;;;;;0.75;0.75;;;0.40;99.90;;;;;;5036311;28;20262;-80
2023/01/22 04:19:36;;;;;;;1.25;1.25;;;0.40;99.90;;;;;;5036642;28;20191;-79
2023/01/22 04:22:03;;;;;;;0.50;0.40;;;0.40;99.90;;;;;;5036841;28;20220;-79
2023/01/22 04:24:30;;;;;;;0.50;0.40;;;0.40;99.90;;;;;;5036274;28;20202;-80
2023/01/22 04:26:57;;;;;;;2.50;2.40;;;0.40;99.90;;;;;;5036663;28;20282;-79
2023/01/22 04:29:23;;;;;;;0.60;0.60;;;0.30;99.90;;;;;;5036026;28;20253;-79
2023/01/22 04:31:50;;;;;;;0.50;0.40;;;0.40;99.90;;;;;;5037101;28;20227;-79
2023/01/22 04:34:18;;;;;;;0.50;0.40;;;0.40;99.90;;;;;;5035958;28;20199;-79
2023/01/22 04:36:45;;;;;;;0.50;0.40;;;0.40;99.90;;;;;;5036487;28;20285;-79
2023/01/22 04:39:12;;;;;;;0.50;0.40;;;0.50;99.90;;;;;;5039681;28;20274;-80
2023/01/22 04:41:39;;;;;;;0.50;0.40;;;0.50;99.90;;;;;;5038382;28;20553;-79
2023/01/22 04:44:06;;;;;;;0.50;0.45;;;0.40;99.90;;;;;;5039872;28;20605;-79
2023/01/22 04:46:32;;;;;;;0.50;0.40;;;0.50;99.90;;;;;;5039576;28;20290;-79
2023/01/22 04:48:59;;;;;;;0.50;0.40;;;0.40;99.90;;;;;;5040150;28;20807;-79
2023/01/22 04:51:27;;;;;;;0.50;0.40;;;0.40;99.90;;;;;;5040646;28;20580;-79
2023/01/22 04:53:54;;;;;;;0.47;0.40;;;0.40;99.90;;;;;;5039458;28;20962;-80
2023/01/22 04:56:21;;;;;;;0.70;0.70;;;0.50;99.90;;;;;;5039231;28;20313;-79
2023/01/22 04:58:48;;;;;;;0.90;0.90;;;0.50;99.90;;;;;;5040349;28;20282;-79
2023/01/22 05:01:15;;;;;;;1.02;1.02;;;0.40;99.90;;;;;;5039697;28;20219;-77
2023/01/22 05:03:42;;;;;;;0.65;0.63;;;0.40;99.90;;;;;;5039856;28;20199;-79
2023/01/22 05:06:08;;;;;;;2.05;1.95;;;0.40;99.90;;;;;;5038416;28;20660;-79
2023/01/22 05:08:36;;;;;;;0.50;0.40;;;0.50;99.90;;;;;;5040175;28;20269;-79
2023/01/22 05:11:04;;;;;;;0.50;0.40;;;0.50;99.90;;;;;;5039602;28;20351;-79
2023/01/22 05:13:30;;;;;;;0.50;0.40;;;0.40;99.90;;;;;;5039140;28;20191;-80
2023/01/22 05:15:57;;;;;;;0.50;0.40;;;0.40;99.90;;;;;;5039704;28;20238;-79
2023/01/22 05:18:24;;;;;;;0.50;0.40;;;0.40;99.90;;;;;;5040186;28;20267;-80
2023/01/22 05:20:51;;;;;;;0.93;0.93;;;0.40;99.90;;;;;;5040316;28;20258;-78
2023/01/22 05:23:18;;;;;;;0.98;0.98;;;0.40;99.90;;;;;;5039289;28;20283;-78
2023/01/22 05:25:49;;;;;;;0.50;0.40;;;0.40;99.90;;;;;;5038722;28;20290;-79
2023/01/22 05:28:16;;;;;;;0.50;0.40;;;0.40;99.90;;;;;;5039443;28;20199;-79
2023/01/22 05:30:43;;;;;;;0.50;0.40;;;0.40;99.90;;;;;;5039059;28;20591;-81
2023/01/22 05:33:10;;;;;;;0.50;0.40;;;0.40;99.90;;;;;;5039115;28;20259;-78
2023/01/22 05:35:36;;;;;;;0.50;0.40;;;0.40;99.90;;;;;;5037846;28;20298;-79
2023/01/22 05:38:03;;;;;;;0.70;0.70;;;0.40;99.90;;;;;;5038919;28;20258;-79
2023/01/22 05:40:30;;;;;;;2.58;2.47;;;0.40;99.90;;;;;;5037904;28;20201;-79
2023/01/22 05:42:58;;;;;;;0.50;0.40;;;0.30;99.90;;;;;;5037494;28;20191;-79
2023/01/22 05:45:25;;;;;;;0.50;0.50;;;0.40;99.90;;;;;;5037096;28;20541;-79
2023/01/22 05:47:53;;;;;;;0.50;0.40;;;0.30;99.90;;;;;;5037800;28;20233;-79
2023/01/22 05:50:20;;;;;;;1.80;1.70;;;0.30;99.90;;;;;;5036965;28;20630;-78
2023/01/22 05:52:46;;;;;;;1.35;0.93;;;0.30;99.90;;;;;;5037072;28;20568;-78
2023/01/22 05:55:13;;;;;;;1.60;1.50;;;0.30;99.90;;;;;;5037948;28;20587;-79
2023/01/22 05:57:40;;;;;;;0.50;0.40;;;0.30;99.90;;;;;;5037598;28;20538;-79
2023/01/22 06:00:10;;;;;;;0.50;0.40;;;0.30;99.90;;;;;;5037797;28;20230;-79
2023/01/22 06:02:37;;;;;;;0.40;0.40;;;0.30;99.90;;;;;;5037766;28;20211;-79
2023/01/22 06:05:04;;;;;;;0.50;0.40;;;0.30;99.90;;;;;;5037781;28;20267;-79
2023/01/22 06:07:31;;;;;;;0.82;0.82;;;0.30;99.90;;;;;;5036775;28;20296;-79
2023/01/22 06:09:58;;;;;;;5.30;4.32;;;0.40;99.90;;;;;;5037107;28;20302;-79
2023/01/22 06:12:25;;;;;;;0.50;0.40;;;0.40;99.90;;;;;;5036371;28;20307;-78
2023/01/22 06:14:53;;;;;;;0.70;0.70;;;0.40;99.90;;;;;;5036324;28;20294;-79
2023/01/22 06:17:21;;;;;;;3.22;1.23;;;0.40;99.90;;;;;;5036453;28;20198;-80
2023/01/22 06:19:48;;;;;;;0.82;0.82;;;0.30;99.90;;;;;;5036304;28;20697;-79
2023/01/22 06:22:15;;;;;;;1.58;1.48;;;0.30;99.90;;;;;;5036710;28;20218;-79
2023/01/22 06:24:41;;;;;;;2.15;0.73;;;0.30;99.90;;;;;;5035935;28;20192;-79
2023/01/22 06:27:08;;;;;;;1.63;1.58;;;0.30;99.90;;;;;;5036287;28;20267;-80
2023/01/22 06:29:35;;;;;;;0.60;0.60;;;0.20;99.90;;;;;;5036548;28;20318;-79
2023/01/22 06:32:02;;;;;;;5.07;2.72;;;0.30;99.90;;;;;;5036401;28;20819;-79
2023/01/22 06:34:30;;;;;;;4.72;2.70;;;0.30;99.90;;;;;;5035635;28;20684;-78
2023/01/22 06:36:57;;;;;;;0.70;0.70;;;0.40;99.90;;;;;;5036573;28;20397;-79
2023/01/22 06:39:24;;;;;;;1.25;1.15;;;0.40;99.90;;;;;;5036325;28;20226;-79
2023/01/22 06:41:50;;;;;;;2.85;2.55;;;0.40;99.90;;;;;;5035379;28;20318;-80
2023/01/22 06:44:18;;;;;;;0.60;0.60;;;0.40;99.90;;;;;;5035856;28;20286;-80
2023/01/22 06:46:45;;;;;;;0.93;0.93;;;0.40;99.90;;;;;;5036148;28;20618;-79
2023/01/22 06:49:13;;;;;;;0.50;0.50;;;0.40;99.90;;;;;;5035720;28;20708;-79
2023/01/22 06:51:41;;;;;;;1.15;0.68;;;0.40;99.90;;;;;;5037387;28;20715;-79
2023/01/22 06:54:11;;;;;;;0.50;0.40;;;0.40;99.90;;;;;;5037725;28;20207;-80
2023/01/22 06:56:37;;;;;;;1.08;1.05;;;0.40;99.90;;;;;;5037537;28;20202;-78
2023/01/22 06:59:04;;;;;;;0.50;0.40;;;0.40;99.90;;;;;;5037233;28;20198;-79
2023/01/22 07:01:31;;;;;;;4.95;3.47;;;0.50;99.90;;;;;;5037414;28;20230;-79
2023/01/22 07:03:58;;;;;;;0.40;0.40;;;0.50;99.90;;;;;;5036984;28;20206;-79
2023/01/22 07:06:25;;;;;;;2.35;2.25;;;0.60;99.90;;;;;;5036808;28;20222;-78
2023/01/22 07:08:55;;;;;;;0.50;0.40;;;0.50;99.90;;;;;;5036038;28;20205;-78
2023/01/22 07:11:22;;;;;;;0.70;0.50;;;0.60;99.90;;;;;;5036385;28;20222;-78
2023/01/22 07:13:49;;;;;;;1.58;1.48;;;0.50;99.90;;;;;;5036629;28;20202;-79
2023/01/22 07:16:15;;;;;;;2.17;1.50;;;0.50;99.90;;;;;;5036230;28;20218;-79
2023/01/22 07:18:42;;;;;;;2.25;2.15;;;0.50;99.90;;;;;;5036048;28;20679;-80
2023/01/22 07:21:11;;;;;;;0.75;0.75;;;0.40;99.90;;;;;;5037226;28;20235;-80
2023/01/22 07:23:38;;;;;;;0.50;0.40;;;0.40;99.90;;;;;;5040175;28;20282;-80
2023/01/22 07:26:06;;;;;;;1.48;1.48;;;0.40;99.90;;;;;;5039287;28;20715;-79
2023/01/22 07:28:33;;;;;;;0.50;0.40;;;0.40;99.90;;;;;;5040047;28;20231;-79
2023/01/22 07:31:02;;;;;;;7.60;1.95;;;0.40;99.90;;;;;;5040379;28;20326;-79
2023/01/22 07:33:28;;;;;;;2.35;2.25;;;0.50;99.90;;;;;;5040231;28;20226;-80
2023/01/22 07:35:56;;;;;;;0.50;0.40;;;0.40;99.90;;;;;;5039510;28;20226;-80
2023/01/22 07:38:23;;;;;;;0.50;0.40;;;0.40;99.90;;;;;;5040288;28;20195;-80
2023/01/22 07:40:50;;;;;;;0.50;0.40;;;0.40;99.90;;;;;;5039152;28;20218;-79
2023/01/22 07:43:18;;;;;;;1.15;1.08;;;0.50;99.90;;;;;;5039842;28;20560;-80
2023/01/22 07:45:45;;;;;;;0.43;0.40;;;0.50;99.90;;;;;;5039710;28;20294;-80
2023/01/22 07:48:12;;;;;;;0.40;0.40;;;0.50;99.90;;;;;;5039085;28;20222;-79
2023/01/22 07:50:39;;;;;;;0.52;0.52;;;0.50;99.90;;;;;;5039863;28;20219;-80
2023/01/22 07:53:07;;;;;;;0.40;0.40;;;0.50;99.90;;;;;;5040701;28;20200;-80
2023/01/22 07:55:33;;;;;;;0.50;0.40;;;0.50;99.90;;;;;;5039068;28;20625;-79
2023/01/22 07:58:03;;;;;;;0.50;0.40;;;0.50;99.90;;;;;;5040675;28;20201;-79
2023/01/22 08:00:33;;;;;;;0.47;0.40;;;0.50;99.90;;;;;;5040063;28;20191;-80
2023/01/22 08:03:00;;;;;;;0.95;0.85;;;0.50;99.90;;;;;;5039245;28;20183;-80
2023/01/22 08:05:27;;;;;;;0.50;0.50;;;0.60;99.90;;;;;;5038789;28;20201;-79
2023/01/22 08:07:54;;;;;;;0.40;0.40;;;0.50;99.90;;;;;;5039520;28;20206;-79
2023/01/22 08:10:21;;;;;;;0.50;0.40;;;0.60;99.90;;;;;;5040021;28;20223;-79
2023/01/22 08:12:48;;;;;;;0.50;0.40;;;0.60;99.90;;;;;;5043423;28;20281;-80
2023/01/22 08:15:15;;;;;;;0.40;0.40;;;0.50;99.90;;;;;;5042936;28;20199;-79
2023/01/22 08:17:43;;;;;;;0.50;0.40;;;0.50;99.90;;;;;;5043948;28;20223;-79
2023/01/22 08:20:11;;;;;;;0.85;0.85;;;0.70;99.90;;;;;;5042887;28;20282;-79
2023/01/22 08:22:38;;;;;;;1.98;0.70;;;0.50;99.90;;;;;;5043056;28;20222;-81
2023/01/22 08:25:05;;;;;;;0.50;0.40;;;0.60;99.90;;;;;;5042556;28;20195;-79
2023/01/22 08:27:33;;;;;;;0.50;0.40;;;0.70;99.90;;;;;;5042229;28;20632;-79
2023/01/22 08:30:00;;;;;;;0.50;0.50;;;0.70;99.90;;;;;;5043165;28;20212;-80
2023/01/22 08:32:27;;;;;;;0.50;0.40;;;0.70;99.90;;;;;;5042953;28;20215;-80
2023/01/22 08:34:55;;;;;;;2.55;2.45;;;0.70;99.90;;;;;;5041291;28;20229;-79
2023/01/22 08:37:23;;;;;;;0.50;0.50;;;0.80;99.90;;;;;;5041665;28;20192;-79
2023/01/22 08:39:50;;;;;;;0.50;0.40;;;0.70;99.90;;;;;;5041391;28;20739;-78
2023/01/22 08:42:17;;;;;;;0.50;0.40;;;0.80;99.90;;;;;;5041821;28;20257;-80
2023/01/22 08:44:44;;;;;;;3.80;2.35;;;0.70;99.90;;;;;;5041650;28;20278;-79
2023/01/22 08:47:11;;;;;;;0.50;0.40;;;0.70;99.90;;;;;;5042286;28;20561;-79
2023/01/22 08:49:38;;;;;;;1.23;1.13;;;0.70;99.90;;;;;;5041721;28;20199;-79
2023/01/22 08:52:07;;;;;;;0.40;0.40;;;0.70;99.90;;;;;;5042539;28;20673;-79
2023/01/22 08:54:34;;;;;;;0.50;0.40;;;0.80;99.90;;;;;;5041492;28;20344;-80
2023/01/22 08:57:00;;;;;;;0.50;0.40;;;0.80;99.90;;;;;;5042393;28;20206;-79
2023/01/22 08:59:27;;;;;;;0.50;0.40;;;0.70;99.90;;;;;;5041294;28;20191;-79
2023/01/22 09:01:54;;;;;;;2.38;2.25;;;0.70;99.90;;;;;;5041813;28;20212;-80
2023/01/22 09:04:21;;;;;;;4.85;3.08;;;0.80;99.90;;;;;;5041904;28;20195;-76
2023/01/22 09:06:48;;;;;;;1.35;1.35;;;0.80;99.90;;;;;;5042467;28;20195;-79
2023/01/22 09:09:16;;;;;;;3.53;3.30;;;0.80;99.90;;;;;;5041685;28;20199;-79
2023/01/22 09:11:44;;;;;;;0.40;0.40;;;0.80;99.90;;;;;;5041918;28;20245;-80
2023/01/22 09:14:11;;;;;;;0.50;0.40;;;0.80;99.90;;;;;;5041556;28;20218;-79
2023/01/22 09:16:38;;;;;;;0.50;0.50;;;0.80;99.90;;;;;;5041880;28;20195;-79
2023/01/22 09:19:05;;;;;;;1.05;0.95;;;0.80;99.90;;;;;;5041379;28;20210;-80
2023/01/22 09:21:36;;;;;;;0.50;0.40;;;0.80;99.90;;;;;;5041875;28;20214;-79
2023/01/22 09:24:02;;;;;;;2.15;1.58;;;0.80;99.90;;;;;;5040630;28;20286;-79
2023/01/22 09:26:32;;;;;;;0.50;0.50;;;0.90;99.90;;;;;;5040137;28;20199;-79
2023/01/22 09:28:59;;;;;;;0.50;0.40;;;0.90;99.90;;;;;;5041327;28;20199;-79
2023/01/22 09:31:26;;;;;;;0.50;0.40;;;0.90;99.90;;;;;;5041244;28;20223;-80
2023/01/22 09:33:54;;;;;;;0.43;0.40;;;0.90;99.90;;;;;;5041186;28;20285;-79
2023/01/22 09:36:21;;;;;;;0.50;0.40;;;0.90;99.90;;;;;;5039503;28;20203;-77
2023/01/22 09:38:48;;;;;;;0.55;0.55;;;1.00;99.90;;;;;;5040469;28;20194;-79
2023/01/22 09:41:22;;;;;;;0.85;0.85;;;1.00;99.90;;;;;;5039535;28;20251;-79
2023/01/22 09:43:54;;;;;;;1.70;1.60;;;1.00;99.90;;;;;;5103017;22;20404;-83
2023/01/22 09:46:27;;;;;;;0.50;0.43;;;1.00;99.90;;;;;;5052123;28;20282;-84
2023/01/22 09:48:59;;;;;;;0.50;0.40;;;1.10;99.90;;;;;;5061066;28;20198;-83
2023/01/22 09:51:26;;;;;;;0.50;0.40;;;1.10;99.90;;;;;;5057574;28;20267;-84
2023/01/22 09:53:58;;;;;;;0.50;0.40;;;1.10;99.90;;;;;;5041674;28;20239;-83
2023/01/22 09:56:33;;;;;;;15.80;3.90;;;1.10;99.90;;;;;;5041472;28;20203;-83
2023/01/22 09:59:06;;;;;;;0.50;0.40;;;1.20;99.90;;;;;;5041904;28;20203;-82
2023/01/22 10:01:34;;;;;;;0.50;0.50;;;1.30;99.90;;;;;;5042465;28;20199;-84
2023/01/22 10:04:05;;;;;;;0.50;0.40;;;1.20;99.90;;;;;;5042457;28;20693;-85
2023/01/22 10:06:42;;;;;;;0.50;0.40;;;1.20;99.90;;;;;;5041036;28;20261;-85
2023/01/22 10:09:14;;;;;;;0.50;0.40;;;1.20;99.90;;;;;;5041957;28;20175;-84
2023/01/22 10:11:51;;;;;;;0.50;0.40;;;1.20;99.90;;;;;;5041698;28;20221;-86
2023/01/22 10:14:25;;;;;;;0.50;0.40;;;1.10;99.90;;;;;;5042689;28;20675;-84
2023/01/22 10:16:52;;;;;;;0.70;0.70;;;1.20;99.90;;;;;;5055402;28;20179;-83
2023/01/22 10:19:24;;;;;;;0.93;0.93;;;1.30;99.90;;;;;;5056455;28;20202;-82
2023/01/22 10:21:56;;;;;;;0.73;0.73;;;1.30;99.90;;;;;;5055770;28;20191;-85
2023/01/22 10:24:23;;;;;;;0.50;0.40;;;1.30;99.90;;;;;;5056528;28;20192;-81
2023/01/22 10:26:57;;;;;;;0.95;0.95;;;1.30;99.90;;;;;;5058188;28;20218;-84
2023/01/22 10:29:31;;;;;;;1.02;1.02;;;1.30;99.90;;;;;;5058400;28;20213;-84
2023/01/22 10:32:00;;;;;;;0.40;0.40;;;1.30;99.90;;;;;;5057702;28;20207;-82
2023/01/22 10:34:31;;;;;;;1.20;1.20;;;1.30;99.90;;;;;;5051771;28;20219;-80
2023/01/22 10:37:01;;;;;;;0.47;0.40;;;1.30;99.90;;;;;;5056185;28;20166;-84
2023/01/22 10:39:39;;;;;;;1.67;1.67;;;1.30;99.90;;;;;;5054485;28;20179;-84
2023/01/22 10:42:05;;;;;;;2.13;1.23;;;1.20;99.90;;;;;;5054679;28;20240;-86
2023/01/22 10:44:34;;;;;;;2.75;1.95;;;1.10;99.90;;;;;;5052118;28;20199;-83
2023/01/22 10:47:08;;;;;;;0.45;0.40;;;1.10;99.90;;;;;;5050651;28;20195;-82
2023/01/22 10:49:35;;;;;;;1.67;1.13;;;1.20;99.90;;;;;;5051121;28;20263;-83
2023/01/22 10:52:18;;;;;;;1.58;1.48;;;1.20;99.90;;;;;;5052145;28;20258;-84
2023/01/22 10:54:53;;;;;;;0.50;0.40;;;1.20;99.90;;;;;;5042194;28;20183;-85
2023/01/22 10:57:25;;;;;;;1.35;1.25;;;1.20;99.90;;;;;;5040560;28;20269;-85
2023/01/22 11:00:00;;;;;;;36.25;4.95;;;1.30;99.90;;;;;;5040387;28;20183;-84
2023/01/22 11:02:28;;;;;;;1.55;1.02;;;1.40;99.90;;;;;;5040247;28;20274;-84
2023/01/22 11:04:55;;;;;;;0.50;0.50;;;1.40;99.90;;;;;;5039520;28;20235;-84
2023/01/22 11:07:26;;;;;;;0.50;0.40;;;1.40;99.90;;;;;;5050590;28;20259;-84
2023/01/22 11:09:59;;;;;;;0.50;0.45;;;1.40;99.90;;;;;;5052772;28;20184;-85
2023/01/22 11:12:31;;;;;;;0.90;0.90;;;1.40;99.90;;;;;;5041952;28;20592;-84
2023/01/22 11:15:05;;;;;;;0.50;0.40;;;1.50;99.90;;;;;;5047331;28;20175;-83
2023/01/22 11:17:37;;;;;;;2.22;2.13;;;1.50;99.90;;;;;;5050482;28;20269;-84
2023/01/22 11:20:14;;;;;;;1.25;1.25;;;1.50;99.90;;;;;;5039917;28;20286;-85
2023/01/22 11:22:45;;;;;;;0.50;0.40;;;1.60;99.90;;;;;;5038968;28;20305;-85
2023/01/22 11:25:12;;;;;;;0.50;0.40;;;1.60;99.90;;;;;;5039346;28;20698;-85
2023/01/22 11:27:51;;;;;;;1.02;1.02;;;1.70;99.90;;;;;;5041246;28;20263;-86
2023/01/22 11:30:42;;;;;;;0.50;0.40;;;1.60;99.90;;;;;;5039192;28;20664;-85
2023/01/22 11:33:18;;;;;;;0.50;0.40;;;1.50;99.90;;;;;;5039166;28;20219;-84
2023/01/22 11:35:51;;;;;;;1.02;1.02;;;1.50;99.90;;;;;;5039097;28;20286;-84
2023/01/22 11:38:29;;;;;;;0.50;0.40;;;1.40;99.90;;;;;;5039715;28;20191;-84
2023/01/22 11:41:10;;;;;;;2.15;2.05;;;1.30;99.90;;;;;;5038841;28;20215;-84
2023/01/22 11:43:54;;;;;;;1.30;1.20;;;1.30;99.90;;;;;;5039158;28;20310;-85
2023/01/22 11:46:44;;;;;;;0.50;0.50;;;1.30;99.90;;;;;;5037936;28;20199;-84
2023/01/22 11:49:22;;;;;;;0.50;0.50;;;1.20;99.90;;;;;;5038156;28;20180;-85
2023/01/22 11:51:59;;;;;;;0.40;0.40;;;1.20;99.90;;;;;;5038935;28;20470;-85
2023/01/22 11:54:42;;;;;;;1.63;1.58;;;1.10;99.90;;;;;;5038942;28;20203;-83
2023/01/22 11:57:16;;;;;;;0.50;0.40;;;1.10;99.90;;;;;;5038809;28;20663;-85
2023/01/22 12:00:03;;;;;;;0.40;0.40;;;1.20;99.90;;;;;;5038819;28;20244;-84
2023/01/22 12:02:59;;;;;;;0.98;0.95;;;1.20;99.90;;;;;;5039657;28;20215;-85
2023/01/22 12:05:36;;;;;;;2.45;1.52;;;1.30;99.90;;;;;;5037788;28;20252;-84
2023/01/22 12:08:16;;;;;;;0.50;0.40;;;1.40;99.90;;;;;;5038857;28;20270;-83
2023/01/22 12:11:06;;;;;;;10.68;8.23;;;1.40;99.90;;;;;;5039410;28;20179;-84
2023/01/22 12:13:49;;;;;;;0.50;0.40;;;1.30;99.90;;;;;;5039637;28;20302;-85
2023/01/22 12:16:25;;;;;;;0.50;0.40;;;1.30;99.90;;;;;;5038750;28;20745;-85
2023/01/22 12:19:11;;;;;;;8.90;3.90;;;1.40;99.90;;;;;;5038699;28;20273;-84
2023/01/22 12:21:51;;;;;;;2.97;0.98;;;1.30;99.90;;;;;;5041416;28;20258;-84
2023/01/22 12:24:25;;;;;;;0.50;0.40;;;1.30;99.90;;;;;;5039385;28;20253;-84
2023/01/22 12:27:03;;;;;;;1.80;1.70;;;1.40;99.90;;;;;;5039384;28;20190;-85
2023/01/22 12:29:34;;;;;;;1.88;1.77;;;1.40;99.90;;;;;;5039224;28;20690;-84
2023/01/22 12:32:07;;;;;;;0.50;0.40;;;1.40;99.90;;;;;;5039780;28;20215;-84
2023/01/22 12:34:42;;;;;;;0.50;0.40;;;1.40;99.90;;;;;;5039308;28;20199;-84
2023/01/22 12:37:13;;;;;;;0.50;0.50;;;1.50;99.90;;;;;;5039534;28;20273;-84
2023/01/22 12:39:49;;;;;;;0.57;0.57;;;1.50;99.90;;;;;;5039978;28;20179;-84
2023/01/22 12:42:26;;;;;;;4.20;1.80;;;1.40;99.90;;;;;;5039472;28;20234;-85
2023/01/22 12:45:02;;;;;;;0.70;0.70;;;1.40;99.90;;;;;;5039809;28;20200;-83
2023/01/22 12:47:36;;;;;;;0.50;0.40;;;1.40;99.90;;;;;;5039174;28;20225;-82
2023/01/22 12:50:16;;;;;;;1.75;1.75;;;1.40;99.90;;;;;;5039247;28;20219;-82
2023/01/22 12:52:43;;;;;;;0.40;0.40;;;1.40;99.90;;;;;;5038997;28;20319;-84
2023/01/22 12:55:30;;;;;;;0.50;0.40;;;1.50;99.90;;;;;;5038700;28;20241;-86
2023/01/22 12:57:58;;;;;;;0.52;0.52;;;1.50;99.90;;;;;;5040382;28;20537;-85
2023/01/22 13:00:33;;;;;;;0.50;0.40;;;1.60;99.90;;;;;;5042359;28;20191;-84
2023/01/22 13:03:01;;;;;;;0.82;0.82;;;1.60;99.90;;;;;;5042374;28;20219;-84
2023/01/22 13:05:43;;;;;;;0.50;0.50;;;1.70;99.90;;;;;;5042493;28;20561;-85
2023/01/22 13:08:27;;;;;;;0.50;0.40;;;1.80;99.90;;;;;;5043228;28;20427;-84
2023/01/22 13:10:58;;;;;;;4.10;1.45;;;1.80;99.90;;;;;;5043160;28;20207;-84
2023/01/22 13:13:30;;;;;;;7.57;4.28;;;1.80;99.90;;;;;;5042574;28;20254;-84
2023/01/22 13:16:01;;;;;;;1.60;1.60;;;1.80;99.90;;;;;;5042987;28;20179;-84
2023/01/22 13:18:30;;;;;;;3.47;3.20;;;1.90;99.90;;;;;;5042735;28;20230;-84
2023/01/22 13:21:03;;;;;;;0.80;0.60;;;1.80;99.90;;;;;;5043166;28;20191;-84
2023/01/22 13:23:32;;;;;;;0.70;0.70;;;1.80;99.90;;;;;;5042607;28;20230;-85